Terminal Aerodrome Forecast
Issued by NWS

Home | Current Version | Previous Version | Text Only | Print | Product List | Glossary On
Versions: 1 2 3 4 5 6 7 8 9 10 11 12 13 14
199
FTUS45 KVEF 302320
TAFHND
TAF
KHND 302320Z 0100/0124 26009G16KT P6SM SKC
     FM010600 23009KT P6SM SKC
     FM011100 VRB06KT P6SM SKC
     FM011600 36011KT P6SM SKC=

USA.gov is the U.S. government's official web portal to all federal, state and local government web resources and services.